sensor_id;sensor_type;location;lat;lon;timestamp;pressure;altitude;pressure_sealevel;temperature;humidity
16690;BME280;8458;52.220;9.884;2023-04-04T00:01:24;102262.38;;;2.55;66.91
16690;BME280;8458;52.220;9.884;2023-04-04T00:03:51;102267.16;;;2.53;67.41
16690;BME280;8458;52.220;9.884;2023-04-04T00:06:17;102269.25;;;2.51;67.05
16690;BME280;8458;52.220;9.884;2023-04-04T00:08:45;102264.44;;;2.45;67.41
16690;BME280;8458;52.220;9.884;2023-04-04T00:11:12;102273.00;;;2.42;67.10
16690;BME280;8458;52.220;9.884;2023-04-04T00:13:39;102269.59;;;2.31;67.43
16690;BME280;8458;52.220;9.884;2023-04-04T00:16:06;102270.09;;;2.27;67.48
16690;BME280;8458;52.220;9.884;2023-04-04T00:18:32;102273.50;;;2.21;67.27
16690;BME280;8458;52.220;9.884;2023-04-04T00:20:59;102275.03;;;2.15;67.61
16690;BME280;8458;52.220;9.884;2023-04-04T00:23:25;102276.09;;;2.14;67.61
16690;BME280;8458;52.220;9.884;2023-04-04T00:25:54;102268.22;;;2.11;67.88
16690;BME280;8458;52.220;9.884;2023-04-04T00:28:21;102268.22;;;2.11;68.02
16690;BME280;8458;52.220;9.884;2023-04-04T00:30:47;102270.75;;;2.04;68.35
16690;BME280;8458;52.220;9.884;2023-04-04T00:33:14;102275.72;;;2.01;68.58
16690;BME280;8458;52.220;9.884;2023-04-04T00:35:40;102280.00;;;2.03;68.94
16690;BME280;8458;52.220;9.884;2023-04-04T00:38:07;102266.84;;;2.07;69.07
16690;BME280;8458;52.220;9.884;2023-04-04T00:40:39;102260.00;;;2.19;68.81
16690;BME280;8458;52.220;9.884;2023-04-04T00:43:07;102261.38;;;2.23;68.85
16690;BME280;8458;52.220;9.884;2023-04-04T00:45:34;102265.47;;;2.19;68.90
16690;BME280;8458;52.220;9.884;2023-04-04T00:48:01;102268.72;;;2.23;69.02
16690;BME280;8458;52.220;9.884;2023-04-04T00:50:28;102267.69;;;2.24;69.17
16690;BME280;8458;52.220;9.884;2023-04-04T00:52:56;102268.03;;;2.21;68.73
16690;BME280;8458;52.220;9.884;2023-04-04T00:55:23;102270.94;;;2.19;68.88
16690;BME280;8458;52.220;9.884;2023-04-04T00:57:50;102268.38;;;2.18;68.14
16690;BME280;8458;52.220;9.884;2023-04-04T01:00:18;102264.44;;;2.12;67.87
16690;BME280;8458;52.220;9.884;2023-04-04T01:02:45;102262.03;;;2.09;68.14
16690;BME280;8458;52.220;9.884;2023-04-04T01:05:12;102256.56;;;2.09;67.91
16690;BME280;8458;52.220;9.884;2023-04-04T01:07:39;102258.97;;;2.04;68.37
16690;BME280;8458;52.220;9.884;2023-04-04T01:10:07;102254.50;;;2.03;68.10
16690;BME280;8458;52.220;9.884;2023-04-04T01:12:33;102252.81;;;2.02;68.62
16690;BME280;8458;52.220;9.884;2023-04-04T01:15:00;102252.81;;;2.02;68.81
16690;BME280;8458;52.220;9.884;2023-04-04T01:17:28;102256.56;;;2.01;68.48
16690;BME280;8458;52.220;9.884;2023-04-04T01:19:59;102265.44;;;2.03;67.93
16690;BME280;8458;52.220;9.884;2023-04-04T01:22:29;102259.31;;;2.01;67.98
16690;BME280;8458;52.220;9.884;2023-04-04T01:24:56;102258.78;;;1.97;67.69
16690;BME280;8458;52.220;9.884;2023-04-04T01:27:24;102262.38;;;1.97;68.22
16690;BME280;8458;52.220;9.884;2023-04-04T01:29:51;102274.00;;;1.91;67.53
16690;BME280;8458;52.220;9.884;2023-04-04T01:32:20;102270.22;;;1.84;67.92
16690;BME280;8458;52.220;9.884;2023-04-04T01:34:57;102269.88;;;1.79;67.75
16690;BME280;8458;52.220;9.884;2023-04-04T01:37:34;102260.47;;;1.82;68.25
16690;BME280;8458;52.220;9.884;2023-04-04T01:40:07;102259.59;;;1.81;68.00
16690;BME280;8458;52.220;9.884;2023-04-04T01:42:39;102247.81;;;1.72;68.63
16690;BME280;8458;52.220;9.884;2023-04-04T01:45:07;102248.84;;;1.79;69.01
16690;BME280;8458;52.220;9.884;2023-04-04T01:47:37;102250.38;;;1.82;69.16
16690;BME280;8458;52.220;9.884;2023-04-04T01:50:05;102249.72;;;1.80;69.06
16690;BME280;8458;52.220;9.884;2023-04-04T01:52:32;102242.19;;;1.82;69.64
16690;BME280;8458;52.220;9.884;2023-04-04T01:54:58;102244.25;;;1.80;69.22
16690;BME280;8458;52.220;9.884;2023-04-04T01:57:25;102232.41;;;1.79;69.12
16690;BME280;8458;52.220;9.884;2023-04-04T01:59:53;102242.34;;;1.72;68.93
16690;BME280;8458;52.220;9.884;2023-04-04T02:02:19;102242.19;;;1.74;69.03
16690;BME280;8458;52.220;9.884;2023-04-04T02:04:46;102241.66;;;1.78;68.82
16690;BME280;8458;52.220;9.884;2023-04-04T02:07:13;102244.56;;;1.77;68.96
16690;BME280;8458;52.220;9.884;2023-04-04T02:09:39;102242.84;;;1.68;69.22
16690;BME280;8458;52.220;9.884;2023-04-04T02:12:06;102240.94;;;1.60;69.37
16690;BME280;8458;52.220;9.884;2023-04-04T02:14:33;102242.28;;;1.56;69.24
16690;BME280;8458;52.220;9.884;2023-04-04T02:17:01;102237.66;;;1.56;69.00
16690;BME280;8458;52.220;9.884;2023-04-04T02:19:28;102231.19;;;1.49;69.41
16690;BME280;8458;52.220;9.884;2023-04-04T02:21:54;102226.38;;;1.43;70.04
16690;BME280;8458;52.220;9.884;2023-04-04T02:24:21;102224.31;;;1.45;69.99
16690;BME280;8458;52.220;9.884;2023-04-04T02:26:48;102228.41;;;1.41;70.06
16690;BME280;8458;52.220;9.884;2023-04-04T02:29:14;102221.44;;;1.47;70.30
16690;BME280;8458;52.220;9.884;2023-04-04T02:31:41;102225.72;;;1.49;70.55
16690;BME280;8458;52.220;9.884;2023-04-04T02:34:09;102225.72;;;1.49;70.40
16690;BME280;8458;52.220;9.884;2023-04-04T02:36:35;102220.56;;;1.46;70.03
16690;BME280;8458;52.220;9.884;2023-04-04T02:39:02;102219.53;;;1.39;70.32
16690;BME280;8458;52.220;9.884;2023-04-04T02:41:30;102225.00;;;1.39;70.71
16690;BME280;8458;52.220;9.884;2023-04-04T02:43:56;102220.38;;;1.39;70.92
16690;BME280;8458;52.220;9.884;2023-04-04T02:46:23;102213.72;;;1.50;70.90
16690;BME280;8458;52.220;9.884;2023-04-04T02:48:49;102211.34;;;1.47;70.81
16690;BME280;8458;52.220;9.884;2023-04-04T02:51:17;102207.25;;;1.51;71.42
16690;BME280;8458;52.220;9.884;2023-04-04T02:53:44;102209.97;;;1.51;72.24
16690;BME280;8458;52.220;9.884;2023-04-04T02:56:11;102201.44;;;1.54;72.04
16690;BME280;8458;52.220;9.884;2023-04-04T02:58:37;102209.47;;;1.56;71.73
16690;BME280;8458;52.220;9.884;2023-04-04T03:01:03;102190.19;;;1.57;71.54
16690;BME280;8458;52.220;9.884;2023-04-04T03:03:30;102189.84;;;1.60;71.51
16690;BME280;8458;52.220;9.884;2023-04-04T03:05:57;102193.91;;;1.48;71.93
16690;BME280;8458;52.220;9.884;2023-04-04T03:08:26;102185.53;;;1.41;71.07
16690;BME280;8458;52.220;9.884;2023-04-04T03:10:52;102187.38;;;1.33;71.43
16690;BME280;8458;52.220;9.884;2023-04-04T03:13:19;102183.63;;;1.25;71.93
16690;BME280;8458;52.220;9.884;2023-04-04T03:15:45;102180.91;;;1.34;72.19
16690;BME280;8458;52.220;9.884;2023-04-04T03:18:11;102179.19;;;1.41;72.48
16690;BME280;8458;52.220;9.884;2023-04-04T03:20:38;102184.88;;;1.48;72.40
16690;BME280;8458;52.220;9.884;2023-04-04T03:23:05;102186.72;;;1.39;72.77
16690;BME280;8458;52.220;9.884;2023-04-04T03:25:33;102181.25;;;1.39;72.42
16690;BME280;8458;52.220;9.884;2023-04-04T03:28:07;102174.59;;;1.41;71.86
16690;BME280;8458;52.220;9.884;2023-04-04T03:30:33;102177.50;;;1.40;71.93
16690;BME280;8458;52.220;9.884;2023-04-04T03:33:02;102180.56;;;1.29;71.88
16690;BME280;8458;52.220;9.884;2023-04-04T03:35:32;102174.03;;;1.21;71.58
16690;BME280;8458;52.220;9.884;2023-04-04T03:38:00;102174.38;;;1.18;71.78
16690;BME280;8458;52.220;9.884;2023-04-04T03:40:27;102171.28;;;1.13;72.06
16690;BME280;8458;52.220;9.884;2023-04-04T03:42:55;102175.88;;;1.13;72.42
16690;BME280;8458;52.220;9.884;2023-04-04T03:45:23;102172.63;;;1.09;72.42
16690;BME280;8458;52.220;9.884;2023-04-04T03:47:49;102166.81;;;1.04;72.13
16690;BME280;8458;52.220;9.884;2023-04-04T03:50:15;102168.56;;;1.13;72.49
16690;BME280;8458;52.220;9.884;2023-04-04T03:52:42;102158.66;;;1.12;72.06
16690;BME280;8458;52.220;9.884;2023-04-04T03:55:08;102163.44;;;1.10;72.45
16690;BME280;8458;52.220;9.884;2023-04-04T03:57:35;102166.16;;;1.10;72.09
16690;BME280;8458;52.220;9.884;2023-04-04T04:00:04;102161.03;;;1.07;72.58
16690;BME280;8458;52.220;9.884;2023-04-04T04:02:31;102163.06;;;1.05;72.20
16690;BME280;8458;52.220;9.884;2023-04-04T04:04:57;102156.22;;;1.01;72.14
16690;BME280;8458;52.220;9.884;2023-04-04T04:07:24;102157.22;;;0.92;72.37
16690;BME280;8458;52.220;9.884;2023-04-04T04:09:50;102158.59;;;0.96;72.10
16690;BME280;8458;52.220;9.884;2023-04-04T04:12:17;102158.97;;;1.09;72.73
16690;BME280;8458;52.220;9.884;2023-04-04T04:14:43;102156.41;;;1.07;72.60
16690;BME280;8458;52.220;9.884;2023-04-04T04:17:11;102156.56;;;0.98;72.09
16690;BME280;8458;52.220;9.884;2023-04-04T04:19:37;102151.94;;;0.98;72.62
16690;BME280;8458;52.220;9.884;2023-04-04T04:22:04;102155.84;;;0.96;72.23
16690;BME280;8458;52.220;9.884;2023-04-04T04:24:30;102162.38;;;1.03;72.69
16690;BME280;8458;52.220;9.884;2023-04-04T04:26:57;102160.31;;;0.97;72.88
16690;BME280;8458;52.220;9.884;2023-04-04T04:29:23;102162.28;;;0.86;72.86
16690;BME280;8458;52.220;9.884;2023-04-04T04:31:50;102150.38;;;0.87;72.28
16690;BME280;8458;52.220;9.884;2023-04-04T04:34:18;102159.06;;;0.83;72.95
16690;BME280;8458;52.220;9.884;2023-04-04T04:36:45;102157.72;;;0.87;73.31
16690;BME280;8458;52.220;9.884;2023-04-04T04:39:12;102161.81;;;0.91;73.97
16690;BME280;8458;52.220;9.884;2023-04-04T04:41:38;102154.44;;;0.83;73.12
16690;BME280;8458;52.220;9.884;2023-04-04T04:44:05;102159.19;;;0.73;73.19
16690;BME280;8458;52.220;9.884;2023-04-04T04:46:32;102155.91;;;0.69;73.96
16690;BME280;8458;52.220;9.884;2023-04-04T04:48:58;102154.88;;;0.62;73.70
16690;BME280;8458;52.220;9.884;2023-04-04T04:51:26;102159.50;;;0.70;73.70
16690;BME280;8458;52.220;9.884;2023-04-04T04:53:52;102163.91;;;0.63;74.34
16690;BME280;8458;52.220;9.884;2023-04-04T04:56:19;102162.19;;;0.62;74.02
16690;BME280;8458;52.220;9.884;2023-04-04T04:58:45;102154.47;;;0.57;74.11
16690;BME280;8458;52.220;9.884;2023-04-04T05:01:13;102167.25;;;0.48;74.42
16690;BME280;8458;52.220;9.884;2023-04-04T05:03:39;102167.75;;;0.44;73.82
16690;BME280;8458;52.220;9.884;2023-04-04T05:06:06;102167.44;;;0.55;74.25
16690;BME280;8458;52.220;9.884;2023-04-04T05:08:33;102164.56;;;0.57;74.66
16690;BME280;8458;52.220;9.884;2023-04-04T05:11:00;102163.91;;;0.63;74.27
16690;BME280;8458;52.220;9.884;2023-04-04T05:13:26;102166.31;;;0.66;75.10
16690;BME280;8458;52.220;9.884;2023-04-04T05:15:53;102170.34;;;0.53;74.77
16690;BME280;8458;52.220;9.884;2023-04-04T05:18:19;102171.75;;;0.58;75.09
16690;BME280;8458;52.220;9.884;2023-04-04T05:20:49;102173.44;;;0.59;75.52
16690;BME280;8458;52.220;9.884;2023-04-04T05:23:17;102177.06;;;0.67;75.31
16690;BME280;8458;52.220;9.884;2023-04-04T05:25:47;102186.16;;;0.76;75.41
16690;BME280;8458;52.220;9.884;2023-04-04T05:28:14;102182.41;;;0.77;75.58
16690;BME280;8458;52.220;9.884;2023-04-04T05:30:40;102180.38;;;0.79;75.49
16690;BME280;8458;52.220;9.884;2023-04-04T05:33:07;102188.56;;;0.79;75.63
16690;BME280;8458;52.220;9.884;2023-04-04T05:35:33;102189.25;;;0.81;75.80
16690;BME280;8458;52.220;9.884;2023-04-04T05:38:00;102190.97;;;0.82;75.61
16690;BME280;8458;52.220;9.884;2023-04-04T05:40:27;102197.13;;;0.84;75.27
16690;BME280;8458;52.220;9.884;2023-04-04T05:42:55;102190.00;;;0.92;75.32
16690;BME280;8458;52.220;9.884;2023-04-04T05:45:22;102203.66;;;0.92;76.11
16690;BME280;8458;52.220;9.884;2023-04-04T05:47:49;102196.81;;;0.96;75.86
16690;BME280;8458;52.220;9.884;2023-04-04T05:50:15;102195.66;;;0.98;76.27
16690;BME280;8458;52.220;9.884;2023-04-04T05:52:42;102209.16;;;1.00;76.38
16690;BME280;8458;52.220;9.884;2023-04-04T05:55:09;102208.84;;;1.11;76.43
16690;BME280;8458;52.220;9.884;2023-04-04T05:57:35;102211.25;;;1.14;76.84
16690;BME280;8458;52.220;9.884;2023-04-04T06:00:04;102197.22;;;1.09;76.90
16690;BME280;8458;52.220;9.884;2023-04-04T06:02:33;102203.75;;;1.16;77.33
16690;BME280;8458;52.220;9.884;2023-04-04T06:05:01;102207.16;;;1.18;76.75
16690;BME280;8458;52.220;9.884;2023-04-04T06:07:27;102209.25;;;1.24;77.23
16690;BME280;8458;52.220;9.884;2023-04-04T06:09:53;102210.63;;;1.29;77.08
16690;BME280;8458;52.220;9.884;2023-04-04T06:12:20;102205.84;;;1.31;76.90
16690;BME280;8458;52.220;9.884;2023-04-04T06:14:47;102202.13;;;1.40;76.71
16690;BME280;8458;52.220;9.884;2023-04-04T06:17:14;102209.31;;;1.49;76.29
16690;BME280;8458;52.220;9.884;2023-04-04T06:19:41;102208.25;;;1.50;76.89
16690;BME280;8458;52.220;9.884;2023-04-04T06:22:07;102201.63;;;1.61;76.48
16690;BME280;8458;52.220;9.884;2023-04-04T06:24:34;102211.88;;;1.67;75.64
16690;BME280;8458;52.220;9.884;2023-04-04T06:27:00;102222.31;;;1.64;74.70
16690;BME280;8458;52.220;9.884;2023-04-04T06:29:27;102216.16;;;1.61;75.10
16690;BME280;8458;52.220;9.884;2023-04-04T06:31:53;102220.25;;;1.57;75.82
16690;BME280;8458;52.220;9.884;2023-04-04T06:34:21;102212.06;;;1.57;75.94
16690;BME280;8458;52.220;9.884;2023-04-04T06:36:47;102216.00;;;1.63;75.57
16690;BME280;8458;52.220;9.884;2023-04-04T06:39:14;102216.50;;;1.67;75.49
16690;BME280;8458;52.220;9.884;2023-04-04T06:41:40;102216.16;;;1.70;75.04
16690;BME280;8458;52.220;9.884;2023-04-04T06:44:07;102212.59;;;1.77;75.95
16690;BME280;8458;52.220;9.884;2023-04-04T06:46:35;102211.06;;;1.83;75.26
16690;BME280;8458;52.220;9.884;2023-04-04T06:49:03;102212.78;;;1.92;74.89
16690;BME280;8458;52.220;9.884;2023-04-04T06:51:32;102219.44;;;1.98;75.03
16690;BME280;8458;52.220;9.884;2023-04-04T06:53:59;102219.28;;;2.08;75.46
16690;BME280;8458;52.220;9.884;2023-04-04T06:56:26;102216.88;;;2.13;74.81
16690;BME280;8458;52.220;9.884;2023-04-04T06:58:52;102218.75;;;2.21;74.65
16690;BME280;8458;52.220;9.884;2023-04-04T07:01:18;102212.44;;;2.20;73.37
16690;BME280;8458;52.220;9.884;2023-04-04T07:03:45;102217.59;;;2.23;73.01
16690;BME280;8458;52.220;9.884;2023-04-04T07:06:11;102216.88;;;2.29;73.56
16690;BME280;8458;52.220;9.884;2023-04-04T07:08:39;102223.38;;;2.37;72.97
16690;BME280;8458;52.220;9.884;2023-04-04T07:11:06;102218.91;;;2.44;72.70
16690;BME280;8458;52.220;9.884;2023-04-04T07:13:33;102221.63;;;2.52;72.83
16690;BME280;8458;52.220;9.884;2023-04-04T07:16:00;102228.47;;;2.64;72.71
16690;BME280;8458;52.220;9.884;2023-04-04T07:18:27;102221.94;;;2.74;72.28
16690;BME280;8458;52.220;9.884;2023-04-04T07:20:53;102226.66;;;2.88;71.59
16690;BME280;8458;52.220;9.884;2023-04-04T07:23:20;102229.41;;;2.96;71.36
16690;BME280;8458;52.220;9.884;2023-04-04T07:25:48;102234.00;;;3.04;71.50
16690;BME280;8458;52.220;9.884;2023-04-04T07:28:14;102222.81;;;3.14;70.72
16690;BME280;8458;52.220;9.884;2023-04-04T07:30:40;102224.81;;;3.28;70.76
16690;BME280;8458;52.220;9.884;2023-04-04T07:33:07;102237.94;;;3.41;70.24
16690;BME280;8458;52.220;9.884;2023-04-04T07:35:34;102229.84;;;3.48;69.80
16690;BME280;8458;52.220;9.884;2023-04-04T07:38:00;102227.94;;;3.56;69.38
16690;BME280;8458;52.220;9.884;2023-04-04T07:40:27;102229.41;;;3.67;68.40
16690;BME280;8458;52.220;9.884;2023-04-04T07:42:54;102223.19;;;3.73;68.32
16690;BME280;8458;52.220;9.884;2023-04-04T07:45:21;102220.31;;;3.90;68.94
16690;BME280;8458;52.220;9.884;2023-04-04T07:47:48;102220.56;;;4.03;68.96
16690;BME280;8458;52.220;9.884;2023-04-04T07:50:15;102220.19;;;4.06;68.89
16690;BME280;8458;52.220;9.884;2023-04-04T07:52:47;102218.03;;;4.17;68.12
16690;BME280;8458;52.220;9.884;2023-04-04T07:55:15;102220.34;;;4.28;67.85
16690;BME280;8458;52.220;9.884;2023-04-04T07:57:42;102211.94;;;4.44;66.85
16690;BME280;8458;52.220;9.884;2023-04-04T08:00:11;102215.94;;;4.57;66.73
16690;BME280;8458;52.220;9.884;2023-04-04T08:02:38;102212.94;;;4.66;65.80
16690;BME280;8458;52.220;9.884;2023-04-04T08:05:06;102211.13;;;4.74;65.28
16690;BME280;8458;52.220;9.884;2023-04-04T08:07:33;102216.44;;;4.75;64.61
16690;BME280;8458;52.220;9.884;2023-04-04T08:09:59;102216.16;;;4.70;65.54
16690;BME280;8458;52.220;9.884;2023-04-04T08:12:26;102204.78;;;4.73;64.93
16690;BME280;8458;52.220;9.884;2023-04-04T08:14:52;102210.09;;;4.90;65.21
16690;BME280;8458;52.220;9.884;2023-04-04T08:17:20;102204.75;;;5.03;64.12
16690;BME280;8458;52.220;9.884;2023-04-04T08:19:47;102205.25;;;5.07;63.32
16690;BME280;8458;52.220;9.884;2023-04-04T08:22:13;102207.44;;;5.11;62.73
16690;BME280;8458;52.220;9.884;2023-04-04T08:24:39;102215.44;;;5.28;63.74
16690;BME280;8458;52.220;9.884;2023-04-04T08:27:06;102211.09;;;5.33;60.96
16690;BME280;8458;52.220;9.884;2023-04-04T08:29:33;102203.56;;;5.42;61.52
16690;BME280;8458;52.220;9.884;2023-04-04T08:31:59;102206.88;;;5.37;60.49
16690;BME280;8458;52.220;9.884;2023-04-04T08:34:27;102206.78;;;5.46;61.37
16690;BME280;8458;52.220;9.884;2023-04-04T08:36:54;102203.31;;;5.59;58.33
16690;BME280;8458;52.220;9.884;2023-04-04T08:39:20;102200.72;;;5.72;57.61
16690;BME280;8458;52.220;9.884;2023-04-04T08:41:51;102195.88;;;5.74;56.81
16690;BME280;8458;52.220;9.884;2023-04-04T08:44:23;102203.50;;;5.72;56.53
16690;BME280;8458;52.220;9.884;2023-04-04T08:46:52;102198.44;;;5.75;57.58
16690;BME280;8458;52.220;9.884;2023-04-04T08:49:20;102187.09;;;5.85;57.82
16690;BME280;8458;52.220;9.884;2023-04-04T08:51:50;102197.69;;;5.88;55.56
16690;BME280;8458;52.220;9.884;2023-04-04T08:54:19;102193.91;;;5.89;56.53
16690;BME280;8458;52.220;9.884;2023-04-04T08:56:46;102192.19;;;5.88;58.63
16690;BME280;8458;52.220;9.884;2023-04-04T08:59:12;102190.94;;;6.06;56.78
16690;BME280;8458;52.220;9.884;2023-04-04T09:01:39;102188.66;;;6.16;55.30
16690;BME280;8458;52.220;9.884;2023-04-04T09:04:07;102192.75;;;6.20;51.47
16690;BME280;8458;52.220;9.884;2023-04-04T09:06:34;102183.91;;;6.32;52.39
16690;BME280;8458;52.220;9.884;2023-04-04T09:09:02;102179.97;;;6.41;52.70
16690;BME280;8458;52.220;9.884;2023-04-04T09:11:30;102178.28;;;6.40;52.59
16690;BME280;8458;52.220;9.884;2023-04-04T09:13:57;102180.25;;;6.46;52.02
16690;BME280;8458;52.220;9.884;2023-04-04T09:16:25;102181.81;;;6.62;53.59
16690;BME280;8458;52.220;9.884;2023-04-04T09:18:51;102182.78;;;6.82;51.82
16690;BME280;8458;52.220;9.884;2023-04-04T09:21:18;102173.91;;;6.87;48.35
16690;BME280;8458;52.220;9.884;2023-04-04T09:23:44;102173.47;;;6.84;48.30
16690;BME280;8458;52.220;9.884;2023-04-04T09:26:12;102178.59;;;6.93;49.59
16690;BME280;8458;52.220;9.884;2023-04-04T09:28:41;102172.34;;;7.13;51.82
16690;BME280;8458;52.220;9.884;2023-04-04T09:31:07;102166.00;;;7.26;49.89
16690;BME280;8458;52.220;9.884;2023-04-04T09:33:34;102172.38;;;7.26;49.01
16690;BME280;8458;52.220;9.884;2023-04-04T09:36:05;102168.38;;;7.35;48.76
16690;BME280;8458;52.220;9.884;2023-04-04T09:38:35;102172.22;;;7.41;48.87
16690;BME280;8458;52.220;9.884;2023-04-04T09:41:04;102175.00;;;7.48;47.62
16690;BME280;8458;52.220;9.884;2023-04-04T09:43:33;102179.09;;;7.65;47.94
16690;BME280;8458;52.220;9.884;2023-04-04T09:46:00;102175.66;;;7.63;48.36
16690;BME280;8458;52.220;9.884;2023-04-04T09:48:27;102179.09;;;7.79;47.40
16690;BME280;8458;52.220;9.884;2023-04-04T09:50:56;102178.03;;;7.93;47.41
16690;BME280;8458;52.220;9.884;2023-04-04T09:53:24;102175.09;;;8.08;46.07
16690;BME280;8458;52.220;9.884;2023-04-04T09:55:51;102179.53;;;8.02;47.01
16690;BME280;8458;52.220;9.884;2023-04-04T09:58:23;102175.09;;;8.15;47.11
16690;BME280;8458;52.220;9.884;2023-04-04T10:00:52;102175.53;;;8.38;46.57
16690;BME280;8458;52.220;9.884;2023-04-04T10:03:21;102178.50;;;8.30;45.31
16690;BME280;8458;52.220;9.884;2023-04-04T10:05:53;102176.78;;;8.02;45.83
16690;BME280;8458;52.220;9.884;2023-04-04T10:08:22;102175.06;;;7.81;46.02
16690;BME280;8458;52.220;9.884;2023-04-04T10:10:49;102170.81;;;7.79;46.66
16690;BME280;8458;52.220;9.884;2023-04-04T10:13:22;102170.41;;;7.82;47.05
16690;BME280;8458;52.220;9.884;2023-04-04T10:15:52;102178.88;;;7.74;46.43
16690;BME280;8458;52.220;9.884;2023-04-04T10:18:20;102182.69;;;7.72;45.79
16690;BME280;8458;52.220;9.884;2023-04-04T10:20:48;102173.78;;;7.77;45.41
16690;BME280;8458;52.220;9.884;2023-04-04T10:23:15;102177.59;;;7.69;45.69
16690;BME280;8458;52.220;9.884;2023-04-04T10:25:42;102175.88;;;7.48;45.14
16690;BME280;8458;52.220;9.884;2023-04-04T10:28:10;102175.88;;;7.55;45.86
16690;BME280;8458;52.220;9.884;2023-04-04T10:30:40;102177.19;;;7.72;45.72
16690;BME280;8458;52.220;9.884;2023-04-04T10:33:14;102178.88;;;7.74;46.54
16690;BME280;8458;52.220;9.884;2023-04-04T10:35:46;102172.06;;;7.69;46.79
16690;BME280;8458;52.220;9.884;2023-04-04T10:38:20;102170.81;;;7.79;46.52
16690;BME280;8458;52.220;9.884;2023-04-04T10:40:52;102169.13;;;7.91;44.67
16690;BME280;8458;52.220;9.884;2023-04-04T10:43:24;102169.13;;;7.91;45.36
16690;BME280;8458;52.220;9.884;2023-04-04T10:45:53;102155.97;;;8.06;45.84
16690;BME280;8458;52.220;9.884;2023-04-04T10:48:22;102149.59;;;8.26;45.33
16690;BME280;8458;52.220;9.884;2023-04-04T10:50:50;102144.69;;;8.41;44.45
16690;BME280;8458;52.220;9.884;2023-04-04T10:53:17;102146.59;;;8.54;44.24
16690;BME280;8458;52.220;9.884;2023-04-04T10:55:44;102144.06;;;8.53;44.36
16690;BME280;8458;52.220;9.884;2023-04-04T10:58:11;102138.06;;;8.69;43.22
16690;BME280;8458;52.220;9.884;2023-04-04T11:00:48;102138.09;;;8.56;44.48
16690;BME280;8458;52.220;9.884;2023-04-04T11:03:15;102141.47;;;8.58;45.67
16690;BME280;8458;52.220;9.884;2023-04-04T11:05:43;102138.50;;;8.66;44.19
16690;BME280;8458;52.220;9.884;2023-04-04T11:08:15;102123.16;;;8.70;44.06
16690;BME280;8458;52.220;9.884;2023-04-04T11:10:46;102118.03;;;8.81;43.92
16690;BME280;8458;52.220;9.884;2023-04-04T11:13:15;102122.75;;;8.67;43.86
16690;BME280;8458;52.220;9.884;2023-04-04T11:15:52;102107.63;;;8.76;45.01
16690;BME280;8458;52.220;9.884;2023-04-04T11:18:19;102116.47;;;8.98;43.58
16690;BME280;8458;52.220;9.884;2023-04-04T11:20:47;102106.19;;;9.12;44.35
16690;BME280;8458;52.220;9.884;2023-04-04T11:23:15;102100.81;;;9.24;43.72
16690;BME280;8458;52.220;9.884;2023-04-04T11:25:49;102092.81;;;9.02;43.26
16690;BME280;8458;52.220;9.884;2023-04-04T11:28:27;102093.22;;;9.12;42.97
16690;BME280;8458;52.220;9.884;2023-04-04T11:31:25;102089.13;;;9.22;42.47
16690;BME280;8458;52.220;9.884;2023-04-04T11:33:56;102089.50;;;8.87;42.64
16690;BME280;8458;52.220;9.884;2023-04-04T11:36:47;102089.31;;;8.82;42.55
16690;BME280;8458;52.220;9.884;2023-04-04T11:39:20;102084.19;;;8.85;42.86
16690;BME280;8458;52.220;9.884;2023-04-04T11:41:51;102086.03;;;8.98;44.03
16690;BME280;8458;52.220;9.884;2023-04-04T11:44:18;102077.91;;;9.10;44.50
16690;BME280;8458;52.220;9.884;2023-04-04T11:46:45;102084.81;;;9.26;44.01
16690;BME280;8458;52.220;9.884;2023-04-04T11:49:12;102082.44;;;9.29;41.09
16690;BME280;8458;52.220;9.884;2023-04-04T11:51:41;102076.34;;;9.21;41.62
16690;BME280;8458;52.220;9.884;2023-04-04T11:54:12;102075.28;;;9.22;42.85
16690;BME280;8458;52.220;9.884;2023-04-04T11:56:40;102067.50;;;9.05;42.38
16690;BME280;8458;52.220;9.884;2023-04-04T11:59:09;102063.66;;;9.06;43.47
16690;BME280;8458;52.220;9.884;2023-04-04T12:01:36;102068.81;;;9.28;43.46
16690;BME280;8458;52.220;9.884;2023-04-04T12:04:03;102056.25;;;9.32;42.62
16690;BME280;8458;52.220;9.884;2023-04-04T12:06:30;102048.63;;;9.52;42.61
16690;BME280;8458;52.220;9.884;2023-04-04T12:09:02;102048.16;;;9.62;41.94
16690;BME280;8458;52.220;9.884;2023-04-04T12:11:29;102051.09;;;9.67;41.53
16690;BME280;8458;52.220;9.884;2023-04-04T12:13:56;102044.94;;;9.91;40.32
16690;BME280;8458;52.220;9.884;2023-04-04T12:16:23;102046.63;;;9.92;40.99
16690;BME280;8458;52.220;9.884;2023-04-04T12:18:49;102036.31;;;9.99;41.20
16690;BME280;8458;52.220;9.884;2023-04-04T12:21:15;102040.94;;;10.05;41.20
16690;BME280;8458;52.220;9.884;2023-04-04T12:23:42;102036.97;;;10.19;40.98
16690;BME280;8458;52.220;9.884;2023-04-04T12:26:10;102033.00;;;10.34;39.60
16690;BME280;8458;52.220;9.884;2023-04-04T12:28:37;102033.44;;;10.31;40.84
16690;BME280;8458;52.220;9.884;2023-04-04T12:31:04;102033.00;;;10.34;40.47
16690;BME280;8458;52.220;9.884;2023-04-04T12:33:31;102032.00;;;10.47;40.67
16690;BME280;8458;52.220;9.884;2023-04-04T12:35:59;102018.31;;;10.52;40.74
16690;BME280;8458;52.220;9.884;2023-04-04T12:38:27;102021.31;;;10.50;40.36
16690;BME280;8458;52.220;9.884;2023-04-04T12:40:54;102017.94;;;10.23;40.22
16690;BME280;8458;52.220;9.884;2023-04-04T12:43:26;102016.66;;;10.26;40.51
16690;BME280;8458;52.220;9.884;2023-04-04T12:45:55;102019.16;;;10.34;41.37
16690;BME280;8458;52.220;9.884;2023-04-04T12:48:25;102015.19;;;10.23;41.74
16690;BME280;8458;52.220;9.884;2023-04-04T12:50:54;102010.94;;;10.20;41.26
16690;BME280;8458;52.220;9.884;2023-04-04T12:53:22;102011.44;;;10.36;41.35
16690;BME280;8458;52.220;9.884;2023-04-04T12:55:50;102008.66;;;10.54;41.73
16690;BME280;8458;52.220;9.884;2023-04-04T12:58:18;102001.78;;;10.75;40.33
16690;BME280;8458;52.220;9.884;2023-04-04T13:00:47;102004.94;;;10.61;39.86
16690;BME280;8458;52.220;9.884;2023-04-04T13:03:15;101999.88;;;10.57;39.86
16690;BME280;8458;52.220;9.884;2023-04-04T13:05:42;101996.94;;;10.52;39.30
16690;BME280;8458;52.220;9.884;2023-04-04T13:08:10;101986.53;;;10.66;39.33
16690;BME280;8458;52.220;9.884;2023-04-04T13:10:58;101988.88;;;10.81;39.76
16690;BME280;8458;52.220;9.884;2023-04-04T13:13:31;101981.81;;;10.67;38.62